SKW5191 KCOS-KIAH
Flight info
| Callsign | SKW5191 |
|---|---|
| Flight time | N/A |
| Altitude | 39000 |
| Route | DRAKE V83 PUB KA36Y KF27A MQP DRLLR5 |
| Aircraft | CRJ7/M-SDFGIRWY/S |
Departure
| Time | N/A |
|---|---|
| Airport | City of Colorado Springs Municipal Airport (KCOS) |
Arrival
| Time | 2025-09-06 23:20 |
|---|---|
| Airport | George Bush Intercontinental Airport (KIAH) |
| Time | Latitude | Longitude | Altitude | Speed | Heading |
|---|---|---|---|---|---|
| 2025-09-06 22:56 | 30.93945 | -96.15892 | 23900 ft | 421 kts | 155° |
| 2025-09-06 22:57 | 30.88823 | -96.12597 | 23147 ft | 419 kts | 155° |
| 2025-09-06 22:57 | 30.83719 | -96.09319 | 22339 ft | 419 kts | 155° |
| 2025-09-06 22:58 | 30.78658 | -96.06057 | 21529 ft | 408 kts | 155° |
| 2025-09-06 22:58 | 30.73768 | -96.02927 | 20743 ft | 400 kts | 155° |
| 2025-09-06 22:59 | 30.66378 | -95.98183 | 19626 ft | 405 kts | 154° |
| 2025-09-06 22:59 | 30.63915 | -95.96603 | 19268 ft | 403 kts | 154° |
| 2025-09-06 23:00 | 30.59056 | -95.93501 | 18542 ft | 399 kts | 154° |
| 2025-09-06 23:00 | 30.54216 | -95.90409 | 17750 ft | 396 kts | 154° |
| 2025-09-06 23:01 | 30.49443 | -95.87292 | 16948 ft | 393 kts | 149° |
| 2025-09-06 23:01 | 30.45222 | -95.83412 | 16158 ft | 377 kts | 140° |
| 2025-09-06 23:02 | 30.41482 | -95.79562 | 15439 ft | 344 kts | 140° |
| 2025-09-06 23:02 | 30.37936 | -95.75990 | 14818 ft | 334 kts | 140° |
| 2025-09-06 23:03 | 30.34415 | -95.72547 | 14219 ft | 329 kts | 141° |
| 2025-09-06 23:03 | 30.30908 | -95.69152 | 13465 ft | 329 kts | 141° |
| 2025-09-06 23:04 | 30.27403 | -95.65767 | 12661 ft | 327 kts | 141° |
| 2025-09-06 23:04 | 30.23926 | -95.62411 | 11886 ft | 324 kts | 140° |
| 2025-09-06 23:05 | 30.20505 | -95.59119 | 11103 ft | 312 kts | 140° |
| 2025-09-06 23:05 | 30.17206 | -95.55955 | 10370 ft | 308 kts | 140° |
| 2025-09-06 23:06 | 30.13946 | -95.52820 | 9616 ft | 306 kts | 140° |
| 2025-09-06 23:06 | 30.10683 | -95.49688 | 8817 ft | 299 kts | 140° |
| 2025-09-06 23:07 | 30.05988 | -95.45160 | 7647 ft | 291 kts | 139° |
| 2025-09-06 23:07 | 30.04459 | -95.43647 | 7245 ft | 288 kts | 139° |
| 2025-09-06 23:08 | 29.99977 | -95.39182 | 6229 ft | 276 kts | 138° |
| 2025-09-06 23:09 | 29.97074 | -95.36290 | 6051 ft | 279 kts | 138° |
| 2025-09-06 23:09 | 29.94153 | -95.33373 | 6017 ft | 267 kts | 138° |
| 2025-09-06 23:10 | 29.91499 | -95.30722 | 5977 ft | 239 kts | 137° |
| 2025-09-06 23:10 | 29.90269 | -95.29494 | 5840 ft | 232 kts | 137° |
| 2025-09-06 23:11 | 29.89093 | -95.22738 | 4875 ft | 222 kts | 86° |
| 2025-09-06 23:11 | 29.89152 | -95.20960 | 4632 ft | 222 kts | 86° |
| 2025-09-06 23:12 | 29.89187 | -95.17410 | 4134 ft | 221 kts | 90° |
| 2025-09-06 23:12 | 29.89074 | -95.13861 | 3641 ft | 221 kts | 91° |
| 2025-09-06 23:13 | 29.88978 | -95.10341 | 3161 ft | 221 kts | 90° |
| 2025-09-06 23:13 | 29.88979 | -95.08574 | 2930 ft | 220 kts | 80° |
| 2025-09-06 23:14 | 29.92693 | -95.06499 | 2649 ft | 220 kts | 3° |
| 2025-09-06 23:14 | 29.95658 | -95.07087 | 2570 ft | 226 kts | 318° |
| 2025-09-06 23:14 | 29.96600 | -95.08525 | 2672 ft | 217 kts | 304° |
| 2025-09-06 23:15 | 29.97673 | -95.13255 | 2586 ft | 200 kts | 274° |
| 2025-09-06 23:16 | 29.97726 | -95.16496 | 2376 ft | 211 kts | 271° |
| 2025-09-06 23:16 | 29.97735 | -95.19912 | 1825 ft | 208 kts | 271° |
| 2025-09-06 23:17 | 29.97746 | -95.23169 | 1278 ft | 196 kts | 271° |
| 2025-09-06 23:17 | 29.97744 | -95.25908 | 771 ft | 156 kts | 270° |
| 2025-09-06 23:18 | 29.97743 | -95.28337 | 393 ft | 148 kts | 273° |
| 2025-09-06 23:18 | 29.97754 | -95.29515 | 232 ft | 145 kts | 274° |
| 2025-09-06 23:18 | 29.97761 | -95.31556 | 107 ft | 88 kts | 271° |
| 2025-09-06 23:19 | 29.97814 | -95.32871 | 105 ft | 28 kts | 296° |
| 2025-09-06 23:20 | 29.97946 | -95.33015 | 105 ft | 20 kts | 359° |
| 2025-09-06 23:20 | 29.98106 | -95.33024 | 105 ft | 26 kts | 356° |
| 2025-09-06 23:21 | 29.98226 | -95.33339 | 105 ft | 25 kts | 271° |
| 2025-09-06 23:21 | 29.98230 | -95.33556 | 105 ft | 19 kts | 271° |
| 2025-09-06 23:22 | 29.98285 | -95.34093 | 105 ft | 19 kts | 291° |
| 2025-09-06 23:22 | 29.98305 | -95.34264 | 106 ft | 25 kts | 270° |
| 2025-09-06 23:22 | 29.98327 | -95.34571 | 104 ft | 23 kts | 271° |
| 2025-09-06 23:23 | 29.98498 | -95.34740 | 105 ft | 0 kts | 44° |